Time;durP1;ratioP1;P1;durP2;ratioP2;P2;SDS_P1;SDS_P2;PMS_P1;PMS_P2;Temp;Humidity;BMP_temperature;BMP_pressure;BME280_temperature;BME280_humidity;BME280_pressure;Samples;Min_cycle;Max_cycle;Signal;HPM_P1;HPM_P2
2023/09/06 00:02:10;;;;;;;8.57;7.28;;;22.30;99.90;;;;;;5035915;28;20135;-72
2023/09/06 00:04:35;;;;;;;7.97;7.18;;;22.50;99.90;;;;;;5054207;28;20044;-72
2023/09/06 00:07:01;;;;;;;10.10;7.40;;;22.30;99.90;;;;;;5053342;28;20446;-72
2023/09/06 00:09:26;;;;;;;7.65;6.90;;;22.30;99.90;;;;;;5035585;28;20040;-72
2023/09/06 00:11:52;;;;;;;8.13;6.88;;;22.20;99.90;;;;;;5019216;28;20087;-72
2023/09/06 00:14:19;;;;;;;11.15;7.93;;;22.20;99.90;;;;;;5035824;28;20503;-72
2023/09/06 00:16:47;;;;;;;8.98;7.03;;;22.20;99.90;;;;;;5035481;28;20052;-72
2023/09/06 00:19:14;;;;;;;8.93;7.28;;;22.10;99.90;;;;;;5034973;28;20131;-72
2023/09/06 00:21:42;;;;;;;8.82;7.63;;;22.00;99.90;;;;;;5035409;28;20049;-72
2023/09/06 00:24:12;;;;;;;9.20;6.93;;;22.00;99.90;;;;;;5022496;28;20274;-72
2023/09/06 00:26:40;;;;;;;8.23;7.25;;;21.90;99.90;;;;;;5021361;28;20044;-72
2023/09/06 00:29:07;;;;;;;8.88;7.63;;;22.00;99.90;;;;;;5037887;28;20040;-71
2023/09/06 00:31:33;;;;;;;9.77;7.63;;;21.80;99.90;;;;;;5019870;28;20079;-71
2023/09/06 00:33:59;;;;;;;10.95;7.88;;;22.10;99.90;;;;;;5019777;28;20524;-72
2023/09/06 00:36:28;;;;;;;11.15;7.72;;;21.90;99.90;;;;;;5035642;28;20047;-72
2023/09/06 00:38:57;;;;;;;8.32;6.85;;;21.90;99.90;;;;;;5035227;28;20051;-71
2023/09/06 00:41:26;;;;;;;9.20;8.13;;;21.90;99.90;;;;;;5035263;28;20033;-72
2023/09/06 00:43:52;;;;;;;8.88;7.90;;;21.80;99.90;;;;;;5035350;28;20163;-72
2023/09/06 00:46:21;;;;;;;11.77;7.50;;;21.80;99.90;;;;;;5813835;22;21212;-73
2023/09/06 00:48:50;;;;;;;8.60;7.30;;;21.80;99.90;;;;;;4998604;28;20500;-73
2023/09/06 00:51:18;;;;;;;11.20;7.28;;;22.20;99.90;;;;;;5001957;28;20046;-72
2023/09/06 00:53:44;;;;;;;11.55;7.22;;;22.00;99.90;;;;;;5012301;28;20102;-71
2023/09/06 00:56:09;;;;;;;8.88;7.32;;;21.90;99.90;;;;;;4995141;28;20492;-71
2023/09/06 00:58:36;;;;;;;9.73;7.85;;;21.70;99.90;;;;;;5011949;28;20451;-72
2023/09/06 01:01:05;;;;;;;8.50;7.25;;;21.90;99.90;;;;;;5028540;23;20046;-70
2023/09/06 01:03:32;;;;;;;9.20;7.53;;;21.60;99.90;;;;;;5028485;28;20038;-71
2023/09/06 01:06:05;;;;;;;11.20;7.30;;;21.60;99.90;;;;;;5011477;28;20133;-70
2023/09/06 01:08:55;;;;;;;11.20;7.45;;;21.50;99.90;;;;;;4995165;28;20053;-70
2023/09/06 01:11:23;;;;;;;8.13;6.65;;;21.70;99.90;;;;;;5003320;28;20141;-72
2023/09/06 01:13:51;;;;;;;14.57;8.18;;;21.50;99.90;;;;;;5011717;28;20045;-72
2023/09/06 01:16:29;;;;;;;9.63;7.72;;;21.50;99.90;;;;;;5011249;28;20045;-72
2023/09/06 01:18:55;;;;;;;8.73;7.70;;;21.60;99.90;;;;;;4995723;28;20041;-72
2023/09/06 01:21:25;;;;;;;9.93;7.85;;;21.50;99.90;;;;;;5011545;28;20038;-72
2023/09/06 01:23:52;;;;;;;7.53;6.82;;;21.50;99.90;;;;;;5011697;28;20033;-72
2023/09/06 01:26:18;;;;;;;9.55;6.72;;;21.40;99.90;;;;;;4995061;28;20050;-72
2023/09/06 01:28:44;;;;;;;8.30;6.90;;;21.60;99.90;;;;;;5011660;28;20053;-72
2023/09/06 01:31:09;;;;;;;10.25;7.13;;;21.50;99.90;;;;;;5010438;28;20091;-72
2023/09/06 01:33:36;;;;;;;10.00;7.75;;;21.50;99.90;;;;;;5011347;28;20124;-72
2023/09/06 01:36:01;;;;;;;8.82;7.65;;;21.50;99.90;;;;;;4994664;28;20034;-72
2023/09/06 01:38:27;;;;;;;10.07;6.93;;;21.50;99.90;;;;;;5011247;28;20135;-72
2023/09/06 01:40:53;;;;;;;9.02;7.35;;;21.60;99.90;;;;;;5010265;28;20057;-72
2023/09/06 01:43:19;;;;;;;8.68;7.85;;;21.30;99.90;;;;;;5011400;28;20065;-72
2023/09/06 01:45:54;;;;;;;10.60;7.63;;;21.40;99.90;;;;;;5012135;28;20484;-72
2023/09/06 01:48:20;;;;;;;9.30;7.93;;;21.30;99.90;;;;;;5011185;28;20038;-72
2023/09/06 01:50:47;;;;;;;11.30;8.57;;;21.40;99.90;;;;;;5010807;28;20077;-72
2023/09/06 01:53:15;;;;;;;10.25;8.27;;;21.30;99.90;;;;;;4994662;28;20045;-72
2023/09/06 01:55:43;;;;;;;10.30;8.30;;;21.20;99.90;;;;;;5010593;28;20046;-71
2023/09/06 01:58:09;;;;;;;12.65;8.68;;;21.30;99.90;;;;;;5010742;28;20034;-72
2023/09/06 02:00:37;;;;;;;10.18;7.55;;;21.10;99.90;;;;;;5010659;28;20038;-72
2023/09/06 02:03:03;;;;;;;10.15;8.20;;;21.00;99.90;;;;;;5010873;28;20120;-72
2023/09/06 02:05:32;;;;;;;10.57;7.88;;;21.10;99.90;;;;;;5011687;28;20074;-72
2023/09/06 02:07:58;;;;;;;11.35;8.35;;;21.30;99.90;;;;;;5011281;28;20045;-72
2023/09/06 02:10:24;;;;;;;9.65;8.00;;;21.00;99.90;;;;;;5011414;28;20437;-72
2023/09/06 02:12:49;;;;;;;10.35;8.63;;;21.30;99.90;;;;;;5010955;28;20038;-72
2023/09/06 02:15:15;;;;;;;10.32;7.72;;;21.00;99.90;;;;;;5010662;28;20134;-72
2023/09/06 02:17:42;;;;;;;10.70;7.90;;;21.10;99.90;;;;;;5010689;28;20189;-72
2023/09/06 02:20:16;;;;;;;9.18;8.05;;;21.30;99.90;;;;;;5010637;28;20049;-72
2023/09/06 02:22:42;;;;;;;9.95;7.70;;;21.10;99.90;;;;;;5010635;28;20033;-72
2023/09/06 02:25:09;;;;;;;11.18;8.02;;;21.00;99.90;;;;;;5011013;28;20122;-72
2023/09/06 02:27:35;;;;;;;10.98;8.27;;;21.20;99.90;;;;;;5010865;28;20041;-72
2023/09/06 02:30:05;;;;;;;8.32;7.43;;;21.00;99.90;;;;;;4994587;28;20042;-72
2023/09/06 02:32:31;;;;;;;9.48;8.10;;;21.00;99.90;;;;;;5010813;28;20497;-72
2023/09/06 02:34:57;;;;;;;8.52;7.03;;;20.80;99.90;;;;;;5010435;28;20137;-72
2023/09/06 02:37:23;;;;;;;9.50;7.82;;;20.90;99.90;;;;;;5011364;28;20030;-72
2023/09/06 02:39:49;;;;;;;11.10;8.40;;;21.00;99.90;;;;;;5010681;28;20108;-72
2023/09/06 02:42:14;;;;;;;8.75;7.22;;;20.90;99.90;;;;;;5010833;28;20037;-72
2023/09/06 02:44:41;;;;;;;13.68;8.52;;;20.70;99.90;;;;;;5014340;28;20037;-72
2023/09/06 02:47:11;;;;;;;7.65;6.95;;;20.80;99.90;;;;;;5014103;28;20104;-72
2023/09/06 02:49:41;;;;;;;7.85;6.45;;;20.80;99.90;;;;;;5014280;28;20052;-72
2023/09/06 02:52:12;;;;;;;8.20;6.60;;;20.90;99.90;;;;;;5015658;28;20034;-72
2023/09/06 02:54:42;;;;;;;7.07;6.10;;;20.80;99.90;;;;;;5014769;28;20432;-72
2023/09/06 02:57:10;;;;;;;7.63;6.18;;;20.60;99.90;;;;;;5013884;28;20050;-72
2023/09/06 02:59:35;;;;;;;7.88;6.90;;;20.70;99.90;;;;;;5013840;28;20046;-72
2023/09/06 03:02:05;;;;;;;8.40;6.50;;;20.70;99.90;;;;;;5014090;28;20044;-72
2023/09/06 03:04:37;;;;;;;9.25;7.00;;;20.60;99.90;;;;;;5014139;28;20037;-72
2023/09/06 03:07:09;;;;;;;11.27;7.15;;;20.80;99.90;;;;;;5013758;28;20038;-72
2023/09/06 03:09:36;;;;;;;10.25;7.28;;;20.80;99.90;;;;;;5014098;28;20455;-72
2023/09/06 03:12:11;;;;;;;10.55;6.70;;;20.90;99.90;;;;;;5013879;28;20042;-72
2023/09/06 03:14:44;;;;;;;8.93;6.47;;;20.50;99.90;;;;;;5013801;28;20520;-72
2023/09/06 03:17:14;;;;;;;7.18;6.47;;;20.90;99.90;;;;;;5013723;28;20077;-72
2023/09/06 03:19:45;;;;;;;7.57;6.68;;;20.50;99.90;;;;;;5013802;28;20080;-72
2023/09/06 03:22:12;;;;;;;10.45;6.88;;;20.60;99.90;;;;;;4997623;28;20401;-72
2023/09/06 03:24:43;;;;;;;8.05;6.78;;;20.60;99.90;;;;;;5014889;28;20049;-72
2023/09/06 03:27:15;;;;;;;8.50;6.03;;;20.80;99.90;;;;;;5013534;28;20092;-72
2023/09/06 03:29:41;;;;;;;8.00;6.47;;;20.50;99.90;;;;;;5013544;28;20124;-72
2023/09/06 03:32:08;;;;;;;10.30;6.45;;;20.50;99.90;;;;;;5013561;28;20104;-72
2023/09/06 03:34:41;;;;;;;9.90;6.40;;;20.50;99.90;;;;;;5013552;28;20073;-72
2023/09/06 03:37:10;;;;;;;7.15;6.40;;;20.40;99.90;;;;;;5013327;28;20053;-72
2023/09/06 03:39:41;;;;;;;9.55;5.60;;;20.40;99.90;;;;;;4997161;28;20061;-72
2023/09/06 03:42:10;;;;;;;8.13;5.47;;;20.20;99.90;;;;;;5013367;28;20077;-72
2023/09/06 03:44:39;;;;;;;8.98;5.20;;;20.50;99.90;;;;;;4997200;28;20100;-72
2023/09/06 03:47:13;;;;;;;7.30;5.45;;;20.40;99.90;;;;;;5013005;28;20042;-73
2023/09/06 03:49:43;;;;;;;6.68;5.88;;;20.30;99.90;;;;;;4996853;28;20037;-72
2023/09/06 03:52:10;;;;;;;11.63;5.97;;;20.30;99.90;;;;;;4996911;28;20455;-72
2023/09/06 03:54:37;;;;;;;7.40;5.47;;;20.40;99.90;;;;;;5013208;28;20046;-72
2023/09/06 03:57:07;;;;;;;6.05;5.45;;;20.40;99.90;;;;;;5014418;28;20045;-72
2023/09/06 03:59:35;;;;;;;5.93;4.82;;;20.00;99.90;;;;;;4996472;28;20049;-72
2023/09/06 04:02:02;;;;;;;7.90;5.70;;;20.10;99.90;;;;;;5013036;28;20559;-72
2023/09/06 04:04:29;;;;;;;8.07;5.65;;;20.30;99.90;;;;;;5012983;28;20045;-72
2023/09/06 04:06:55;;;;;;;6.45;5.40;;;20.10;99.90;;;;;;5012566;28;20045;-72
2023/09/06 04:09:27;;;;;;;7.55;5.97;;;20.20;99.90;;;;;;5013025;28;20128;-72
2023/09/06 04:11:53;;;;;;;6.55;5.85;;;20.00;99.90;;;;;;5012945;28;20042;-72
2023/09/06 04:14:22;;;;;;;6.72;5.78;;;20.00;99.90;;;;;;5013055;28;20440;-72
2023/09/06 04:16:48;;;;;;;7.35;5.60;;;20.20;99.90;;;;;;5012354;28;20053;-72
2023/09/06 04:19:14;;;;;;;7.03;5.30;;;19.90;99.90;;;;;;4996258;28;20077;-72
2023/09/06 04:21:40;;;;;;;6.53;5.43;;;21.10;99.90;;;;;;5012921;28;20069;-72
2023/09/06 04:24:07;;;;;;;5.97;4.90;;;20.20;99.90;;;;;;5013692;28;20393;-72
2023/09/06 04:26:33;;;;;;;6.03;5.10;;;20.00;99.90;;;;;;5015121;28;20049;-72
2023/09/06 04:28:59;;;;;;;6.38;5.72;;;20.10;99.90;;;;;;5015438;28;20038;-72
2023/09/06 04:31:25;;;;;;;6.57;4.75;;;20.00;99.90;;;;;;5014025;28;20049;-72
2023/09/06 04:33:51;;;;;;;6.18;5.03;;;19.90;99.90;;;;;;5012466;28;20152;-72
2023/09/06 04:36:18;;;;;;;6.30;5.25;;;20.10;99.90;;;;;;4997061;28;20041;-72
2023/09/06 04:38:46;;;;;;;8.85;5.10;;;20.10;99.90;;;;;;5012221;28;20046;-72
2023/09/06 04:41:14;;;;;;;6.07;4.80;;;20.20;99.90;;;;;;5012090;28;20038;-72
2023/09/06 04:43:40;;;;;;;7.03;5.20;;;19.90;99.90;;;;;;5012355;28;20053;-72
2023/09/06 04:46:06;;;;;;;8.60;5.25;;;20.00;99.90;;;;;;5011801;28;20033;-72
2023/09/06 04:48:31;;;;;;;6.63;5.50;;;20.10;99.90;;;;;;4996249;28;20038;-72
2023/09/06 04:50:59;;;;;;;6.25;4.88;;;19.90;99.90;;;;;;5012499;28;20419;-72
2023/09/06 04:53:25;;;;;;;7.13;4.90;;;20.10;99.90;;;;;;4996424;28;20492;-72
2023/09/06 04:55:52;;;;;;;7.20;4.88;;;19.90;99.90;;;;;;5011956;28;20517;-72
2023/09/06 04:58:18;;;;;;;5.95;4.80;;;20.40;99.90;;;;;;5012327;28;20377;-72
2023/09/06 05:00:47;;;;;;;8.20;4.78;;;19.90;99.90;;;;;;5011954;28;20493;-72
2023/09/06 05:03:17;;;;;;;7.47;4.72;;;20.00;99.90;;;;;;5011840;28;20124;-72
2023/09/06 05:05:47;;;;;;;9.02;5.25;;;19.90;99.90;;;;;;5011474;28;20049;-72
2023/09/06 05:08:14;;;;;;;8.32;4.72;;;20.20;99.90;;;;;;5011711;28;20064;-72
2023/09/06 05:10:39;;;;;;;6.25;5.25;;;20.20;99.90;;;;;;5011545;28;20079;-72
2023/09/06 05:13:07;;;;;;;6.32;5.35;;;20.20;99.90;;;;;;5011293;28;20073;-72
2023/09/06 05:15:37;;;;;;;4.93;4.43;;;19.90;99.90;;;;;;5011795;28;20408;-72
2023/09/06 05:18:04;;;;;;;6.05;5.10;;;20.30;99.90;;;;;;4995183;28;20115;-72
2023/09/06 05:20:31;;;;;;;5.32;4.53;;;20.10;99.90;;;;;;5011398;28;20033;-72
2023/09/06 05:23:05;;;;;;;8.38;5.40;;;20.20;99.90;;;;;;5004485;28;20042;-72
2023/09/06 05:25:31;;;;;;;5.90;4.88;;;19.90;99.90;;;;;;4980533;28;20493;-72
2023/09/06 05:27:59;;;;;;;6.40;4.95;;;19.90;99.90;;;;;;4991341;28;20433;-72
2023/09/06 05:30:25;;;;;;;9.15;5.38;;;20.00;99.90;;;;;;5017650;28;20377;-72
2023/09/06 05:32:51;;;;;;;7.00;4.45;;;19.90;99.90;;;;;;4999649;28;20038;-72
2023/09/06 05:35:17;;;;;;;6.80;5.15;;;20.10;99.90;;;;;;5001645;28;20050;-73
2023/09/06 05:37:42;;;;;;;5.65;4.68;;;20.00;99.90;;;;;;4985985;28;20493;-71
2023/09/06 05:40:09;;;;;;;7.80;5.10;;;20.30;99.90;;;;;;5001077;28;20034;-71
2023/09/06 05:42:35;;;;;;;6.97;4.97;;;20.20;99.90;;;;;;5000889;28;20041;-72
2023/09/06 05:45:01;;;;;;;7.93;5.45;;;20.20;99.90;;;;;;5001745;28;20042;-72
2023/09/06 05:47:26;;;;;;;8.82;4.78;;;20.60;99.90;;;;;;4999690;28;20449;-72
2023/09/06 05:49:55;;;;;;;6.93;5.32;;;19.90;99.90;;;;;;5001063;28;20025;-72
2023/09/06 05:52:24;;;;;;;5.40;4.75;;;20.90;99.90;;;;;;5006614;28;20122;-72
2023/09/06 05:54:50;;;;;;;7.68;5.70;;;20.40;99.90;;;;;;4995970;28;20066;-72
2023/09/06 05:57:16;;;;;;;7.45;5.15;;;20.90;99.90;;;;;;4999112;28;20519;-71
2023/09/06 05:59:41;;;;;;;6.30;4.57;;;20.40;99.90;;;;;;4999428;28;20041;-72
2023/09/06 06:02:07;;;;;;;7.60;5.15;;;20.60;99.90;;;;;;4999132;28;20042;-72
2023/09/06 06:04:34;;;;;;;10.13;5.78;;;20.60;99.90;;;;;;5003667;28;20041;-73
2023/09/06 06:07:00;;;;;;;6.65;5.05;;;20.40;99.90;;;;;;5007350;28;20060;-72
2023/09/06 06:09:30;;;;;;;7.07;4.72;;;20.60;99.90;;;;;;5010468;28;20128;-72
2023/09/06 06:11:55;;;;;;;5.75;4.18;;;20.80;99.90;;;;;;4993735;28;20731;-72
2023/09/06 06:14:23;;;;;;;7.25;5.15;;;20.50;99.90;;;;;;5010617;28;20041;-72
2023/09/06 06:16:49;;;;;;;5.38;4.85;;;20.70;99.90;;;;;;5009757;28;20504;-72
2023/09/06 06:19:14;;;;;;;7.10;5.53;;;20.70;99.90;;;;;;5010601;28;20053;-72
2023/09/06 06:21:40;;;;;;;9.13;4.95;;;20.70;99.90;;;;;;5006438;28;20038;-72
2023/09/06 06:24:09;;;;;;;7.38;4.10;;;20.70;99.90;;;;;;5006587;28;20093;-72
2023/09/06 06:26:35;;;;;;;9.88;5.30;;;20.90;99.90;;;;;;5006753;28;20061;-72
2023/09/06 06:29:01;;;;;;;8.88;5.63;;;21.00;99.90;;;;;;4984816;28;20552;-70
2023/09/06 06:31:28;;;;;;;7.25;5.90;;;20.80;99.90;;;;;;5006816;28;20050;-69
2023/09/06 06:33:53;;;;;;;10.45;5.35;;;20.90;99.90;;;;;;5003005;28;20042;-71
2023/09/06 06:36:19;;;;;;;7.65;5.13;;;21.10;99.90;;;;;;5008545;28;20527;-73
2023/09/06 06:38:48;;;;;;;8.68;5.00;;;21.10;99.90;;;;;;5010268;28;20165;-73
2023/09/06 06:41:20;;;;;;;7.30;4.95;;;21.90;99.90;;;;;;5009271;28;20477;-72
2023/09/06 06:43:47;;;;;;;6.20;3.90;;;21.30;99.90;;;;;;4994103;28;20033;-72
2023/09/06 06:46:32;;;;;;;9.68;4.90;;;22.30;99.90;;;;;;5010396;28;20050;-73
2023/09/06 06:48:59;;;;;;;5.75;5.07;;;21.40;99.90;;;;;;5010542;28;20180;-72
2023/09/06 06:51:35;;;;;;;7.82;5.65;;;21.70;99.90;;;;;;5010265;28;20067;-72
2023/09/06 06:54:04;;;;;;;6.90;4.70;;;21.60;99.90;;;;;;5010313;28;20049;-71
2023/09/06 06:56:30;;;;;;;6.30;5.25;;;21.90;99.90;;;;;;5008270;28;20046;-71
2023/09/06 06:58:55;;;;;;;6.28;4.63;;;22.70;99.90;;;;;;5009754;28;20040;-71
2023/09/06 07:01:24;;;;;;;6.55;4.38;;;21.80;99.90;;;;;;5033565;22;20046;-72
2023/09/06 07:03:49;;;;;;;5.05;4.40;;;22.00;99.90;;;;;;5017305;28;20041;-72
2023/09/06 07:06:15;;;;;;;6.97;4.80;;;21.80;99.90;;;;;;4990548;28;20084;-72
2023/09/06 07:08:41;;;;;;;6.43;4.57;;;22.00;99.90;;;;;;5007768;28;20457;-72
2023/09/06 07:11:07;;;;;;;7.53;4.93;;;22.20;99.90;;;;;;5009934;28;20133;-71
2023/09/06 07:13:36;;;;;;;7.35;4.90;;;22.10;99.90;;;;;;4990323;28;20038;-72
2023/09/06 07:16:03;;;;;;;11.77;5.55;;;22.50;99.90;;;;;;5004461;28;20043;-72
2023/09/06 07:18:28;;;;;;;7.80;4.53;;;22.60;99.90;;;;;;5006060;28;20044;-72
2023/09/06 07:20:54;;;;;;;6.30;4.25;;;22.50;99.90;;;;;;4990275;28;20030;-72
2023/09/06 07:23:20;;;;;;;6.82;4.45;;;22.50;99.90;;;;;;5003998;28;20045;-72
2023/09/06 07:25:49;;;;;;;6.35;4.35;;;22.60;99.90;;;;;;5009643;28;20074;-73
2023/09/06 07:28:15;;;;;;;4.85;3.83;;;22.70;99.90;;;;;;5010126;28;20100;-72
2023/09/06 07:30:42;;;;;;;9.20;4.63;;;22.90;99.90;;;;;;5012387;28;20493;-73
2023/09/06 07:33:08;;;;;;;7.95;3.80;;;22.90;99.90;;;;;;5013247;28;20080;-72
2023/09/06 07:35:34;;;;;;;5.57;3.90;;;23.20;99.90;;;;;;5013244;28;20125;-73
2023/09/06 07:38:00;;;;;;;5.00;3.97;;;23.00;99.90;;;;;;4996595;28;20034;-72
2023/09/06 07:40:26;;;;;;;6.45;4.00;;;23.10;99.90;;;;;;5013430;28;20040;-72
2023/09/06 07:42:52;;;;;;;7.32;4.38;;;23.10;99.90;;;;;;5013182;28;20060;-72
2023/09/06 07:45:18;;;;;;;4.47;3.83;;;23.30;99.90;;;;;;5013090;28;20053;-73
2023/09/06 07:47:44;;;;;;;4.28;3.10;;;23.30;99.90;;;;;;5012867;28;20045;-72
2023/09/06 07:50:10;;;;;;;5.20;3.80;;;23.50;99.90;;;;;;5013237;28;20493;-72
2023/09/06 07:52:37;;;;;;;4.78;3.47;;;23.70;99.90;;;;;;5012874;28;20038;-73
2023/09/06 07:55:06;;;;;;;7.32;3.70;;;24.10;99.90;;;;;;5013125;28;20042;-72
2023/09/06 07:57:31;;;;;;;3.97;3.35;;;24.10;99.90;;;;;;4996487;28;20037;-72
2023/09/06 07:59:57;;;;;;;6.00;3.42;;;24.10;99.90;;;;;;5012549;28;20504;-72
2023/09/06 08:02:23;;;;;;;5.72;4.15;;;24.20;99.90;;;;;;5012657;28;20081;-72
2023/09/06 08:04:50;;;;;;;5.57;3.55;;;24.30;99.90;;;;;;5012790;28;20045;-72
2023/09/06 08:07:21;;;;;;;6.65;3.40;;;24.20;99.90;;;;;;5012427;28;20056;-72
2023/09/06 08:09:46;;;;;;;6.68;3.17;;;24.20;99.90;;;;;;4996342;28;20037;-72
2023/09/06 08:12:12;;;;;;;7.22;3.45;;;24.50;99.90;;;;;;4996497;28;20088;-72
2023/09/06 08:14:39;;;;;;;4.53;3.10;;;24.60;99.90;;;;;;5012009;28;20454;-72
2023/09/06 08:17:04;;;;;;;4.22;3.25;;;24.60;99.90;;;;;;5010889;28;20042;-72
2023/09/06 08:19:30;;;;;;;4.88;3.00;;;24.80;99.90;;;;;;5012609;28;20136;-73
2023/09/06 08:21:56;;;;;;;4.88;3.03;;;24.90;99.90;;;;;;4995665;28;20045;-72
2023/09/06 08:24:24;;;;;;;6.35;3.13;;;;;;;;;;5012424;28;20061;-72
2023/09/06 08:26:52;;;;;;;5.53;3.47;;;;;;;;;;5012349;28;20497;-72
2023/09/06 08:29:19;;;;;;;7.72;3.00;;;;;;;;;;5012960;28;20088;-72
2023/09/06 08:31:45;;;;;;;4.32;2.88;;;;;;;;;;5012698;28;20050;-72
2023/09/06 08:34:11;;;;;;;6.43;3.00;;;;;;;;;;5013138;28;20068;-72
2023/09/06 08:36:37;;;;;;;4.78;3.28;;;;;;;;;;5012396;28;20052;-72
2023/09/06 08:39:04;;;;;;;7.63;3.42;;;;;;;;;;5012676;28;20038;-72
2023/09/06 08:41:31;;;;;;;5.75;3.30;;;;;;;;;;5011784;28;20046;-73
2023/09/06 08:44:01;;;;;;;8.85;3.55;;;;;;;;;;5012311;28;20085;-73
2023/09/06 08:46:41;;;;;;;4.68;3.08;;;;;;;;;;4999945;28;20046;-72
2023/09/06 08:49:08;;;;;;;4.00;2.70;;;;;;;;;;4992446;28;20057;-73
2023/09/06 08:51:37;;;;;;;6.40;3.17;;;;;;;;;;4994575;28;20041;-72
2023/09/06 08:54:07;;;;;;;5.30;3.30;;;;;;;;;;5011264;28;20164;-73
2023/09/06 08:56:35;;;;;;;3.95;2.88;;;25.70;99.90;;;;;;5011717;28;20409;-72
2023/09/06 08:59:01;;;;;;;4.55;2.53;;;25.90;99.90;;;;;;5011693;28;20537;-72
2023/09/06 09:01:28;;;;;;;4.95;2.92;;;25.80;99.90;;;;;;5011272;28;20183;-72
2023/09/06 09:03:54;;;;;;;3.42;2.80;;;25.80;99.90;;;;;;5013025;28;20092;-72
2023/09/06 09:06:20;;;;;;;4.53;2.75;;;25.80;99.90;;;;;;4994955;28;20570;-70
2023/09/06 09:08:46;;;;;;;4.15;2.88;;;25.90;99.90;;;;;;5011509;28;20073;-70
2023/09/06 09:11:13;;;;;;;4.60;2.97;;;26.00;99.90;;;;;;5011478;28;20119;-72
2023/09/06 09:13:40;;;;;;;4.72;2.90;;;26.20;99.90;;;;;;4995202;28;20053;-74
2023/09/06 09:16:08;;;;;;;6.00;3.00;;;26.30;99.90;;;;;;5010680;28;20049;-74
2023/09/06 09:18:34;;;;;;;5.57;3.15;;;26.20;99.90;;;;;;4995442;28;20064;-73
2023/09/06 09:21:03;;;;;;;4.03;3.10;;;26.40;99.90;;;;;;5011607;28;20046;-74
2023/09/06 09:23:40;;;;;;;11.57;5.30;;;26.30;99.90;;;;;;5011275;28;20045;-74
2023/09/06 09:26:08;;;;;;;7.35;4.60;;;26.50;99.90;;;;;;5011324;28;20119;-74
2023/09/06 09:28:35;;;;;;;4.80;2.45;;;26.60;99.90;;;;;;5011612;28;20481;-74
2023/09/06 09:31:01;;;;;;;5.93;3.58;;;26.70;99.90;;;;;;5008099;28;20405;-73
2023/09/06 09:33:28;;;;;;;10.38;6.85;;;26.90;99.90;;;;;;5011481;28;20412;-74
2023/09/06 09:35:55;;;;;;;10.68;6.47;;;26.90;99.90;;;;;;5010555;28;20052;-73
2023/09/06 09:38:21;;;;;;;4.70;2.90;;;27.10;99.90;;;;;;5011109;28;20034;-74
2023/09/06 09:41:04;;;;;;;9.15;4.68;;;27.00;99.90;;;;;;5010226;28;20053;-74
2023/09/06 09:43:29;;;;;;;7.22;3.58;;;27.10;99.90;;;;;;5010990;28;20041;-73
2023/09/06 09:45:55;;;;;;;5.03;2.83;;;27.00;99.90;;;;;;4994579;28;20508;-73
2023/09/06 09:48:27;;;;;;;6.03;2.85;;;27.50;99.90;;;;;;4994458;28;20164;-73
2023/09/06 09:50:54;;;;;;;4.38;3.10;;;27.30;99.90;;;;;;5011188;28;20624;-73
2023/09/06 09:53:25;;;;;;;3.92;2.63;;;27.30;99.90;;;;;;5010133;28;20049;-73
2023/09/06 09:55:55;;;;;;;5.07;2.65;;;27.30;99.90;;;;;;5010759;28;20524;-74
2023/09/06 09:58:21;;;;;;;4.15;3.05;;;27.30;99.90;;;;;;5011062;28;20033;-73
2023/09/06 10:00:50;;;;;;;3.35;2.42;;;27.40;99.90;;;;;;5010315;28;20483;-74
2023/09/06 10:03:16;;;;;;;4.55;2.83;;;27.50;99.90;;;;;;5010739;28;20508;-74
2023/09/06 10:05:43;;;;;;;6.80;3.10;;;27.30;99.90;;;;;;5010794;28;20037;-74
2023/09/06 10:08:10;;;;;;;6.65;2.60;;;27.30;99.90;;;;;;4994620;28;20464;-73
2023/09/06 10:10:39;;;;;;;4.80;2.65;;;27.50;99.90;;;;;;5010654;28;20041;-73
2023/09/06 10:13:08;;;;;;;5.35;3.00;;;27.60;99.90;;;;;;5010877;28;20489;-74
2023/09/06 10:15:35;;;;;;;4.43;2.78;;;27.70;99.90;;;;;;5010235;28;20050;-74
2023/09/06 10:18:03;;;;;;;3.95;2.47;;;27.70;99.90;;;;;;5010291;28;20042;-73
2023/09/06 10:20:31;;;;;;;4.18;2.40;;;27.80;99.90;;;;;;5010689;28;20044;-74
2023/09/06 10:22:59;;;;;;;7.30;2.88;;;27.90;99.90;;;;;;5010533;28;20041;-74
2023/09/06 10:25:25;;;;;;;4.20;2.20;;;28.00;99.90;;;;;;5010566;28;20042;-74
2023/09/06 10:28:01;;;;;;;6.47;2.85;;;28.10;99.90;;;;;;5010157;28;20049;-74
2023/09/06 10:30:43;;;;;;;5.30;2.95;;;28.20;99.90;;;;;;5009900;28;20048;-73
2023/09/06 10:33:28;;;;;;;4.05;2.78;;;28.40;99.90;;;;;;5008724;28;20050;-74
2023/09/06 10:35:57;;;;;;;3.75;2.25;;;28.50;99.90;;;;;;4993150;28;20049;-74
2023/09/06 10:38:23;;;;;;;4.50;2.15;;;28.40;99.90;;;;;;4996099;28;20122;-74
2023/09/06 10:40:49;;;;;;;2.40;2.20;;;28.30;99.90;;;;;;4992972;28;20109;-73
2023/09/06 10:43:20;;;;;;;5.32;2.70;;;28.60;99.90;;;;;;4991011;28;20038;-73
2023/09/06 10:46:27;;;;;;;2.75;2.10;;;28.60;99.90;;;;;;4974302;28;20057;-75
2023/09/06 10:49:25;;;;;;;2.95;2.15;;;28.60;99.90;;;;;;4973413;28;20568;-74
2023/09/06 10:51:57;;;;;;;2.83;2.25;;;28.80;99.90;;;;;;5008439;28;20081;-74
2023/09/06 10:54:34;;;;;;;3.45;2.30;;;28.90;99.90;;;;;;5000042;28;20041;-74
2023/09/06 10:57:05;;;;;;;3.70;2.22;;;29.10;99.90;;;;;;4989219;28;20042;-74
2023/09/06 10:59:32;;;;;;;4.47;2.33;;;28.90;99.90;;;;;;5006668;28;20117;-74
2023/09/06 11:02:20;;;;;;;3.13;2.30;;;29.10;99.90;;;;;;4990156;28;20050;-73
2023/09/06 11:04:46;;;;;;;3.28;2.15;;;29.10;99.90;;;;;;5009695;28;20397;-73
2023/09/06 11:07:13;;;;;;;5.47;1.95;;;29.40;99.90;;;;;;5010001;28;20042;-73
2023/09/06 11:09:49;;;;;;;3.45;2.13;;;29.30;99.90;;;;;;5010194;28;20042;-73
2023/09/06 11:12:15;;;;;;;3.67;2.15;;;29.30;99.90;;;;;;4993294;28;20076;-73
2023/09/06 11:14:42;;;;;;;3.47;2.20;;;29.30;99.90;;;;;;5011817;28;20034;-74
2023/09/06 11:17:07;;;;;;;3.00;1.95;;;29.30;99.90;;;;;;5004802;28;20087;-74
2023/09/06 11:19:36;;;;;;;2.97;1.90;;;29.50;99.90;;;;;;4987807;28;20077;-73
2023/09/06 11:22:11;;;;;;;1.75;1.60;;;29.50;99.90;;;;;;4993684;28;20501;-75
2023/09/06 11:24:37;;;;;;;3.45;1.92;;;29.70;99.90;;;;;;5001355;28;20038;-75
2023/09/06 11:27:33;;;;;;;3.40;1.92;;;29.30;99.90;;;;;;5009935;28;20500;-75
2023/09/06 11:30:10;;;;;;;2.75;1.63;;;29.70;99.90;;;;;;4997223;28;20048;-75
2023/09/06 11:32:37;;;;;;;4.47;1.60;;;29.60;99.90;;;;;;5010022;28;20041;-75
2023/09/06 11:35:08;;;;;;;2.20;1.65;;;30.00;99.90;;;;;;5007534;28;20038;-74
2023/09/06 11:37:41;;;;;;;4.53;1.63;;;29.90;99.90;;;;;;5010439;28;20420;-74
2023/09/06 11:40:13;;;;;;;2.92;1.83;;;29.70;99.90;;;;;;4993810;28;20048;-75
2023/09/06 11:42:45;;;;;;;5.88;1.60;;;29.70;99.90;;;;;;5009725;28;20038;-74
2023/09/06 11:45:14;;;;;;;3.97;1.70;;;29.80;99.90;;;;;;4993039;28;20069;-74
2023/09/06 11:47:42;;;;;;;2.85;1.60;;;30.00;99.90;;;;;;5009399;28;20307;-75
2023/09/06 11:50:11;;;;;;;1.92;1.73;;;30.20;99.90;;;;;;5011788;28;20072;-75
2023/09/06 11:52:37;;;;;;;7.95;2.10;;;30.20;99.90;;;;;;5011783;28;20042;-74
2023/09/06 11:55:08;;;;;;;2.88;1.95;;;30.30;99.90;;;;;;4995577;28;20468;-74
2023/09/06 11:57:38;;;;;;;3.70;1.52;;;30.20;99.90;;;;;;4996493;28;20044;-75
2023/09/06 12:00:19;;;;;;;2.95;1.40;;;30.30;99.90;;;;;;5012827;28;20038;-75
2023/09/06 12:02:48;;;;;;;3.65;1.60;;;30.20;99.90;;;;;;5012862;28;20045;-75
2023/09/06 12:05:16;;;;;;;2.28;1.67;;;30.20;99.90;;;;;;5013209;28;20041;-74
2023/09/06 12:07:43;;;;;;;2.20;1.70;;;30.30;99.90;;;;;;5012663;28;20378;-74
2023/09/06 12:10:09;;;;;;;4.90;1.83;;;30.30;99.90;;;;;;5012634;28;20053;-76
2023/09/06 12:12:42;;;;;;;9.05;2.10;;;30.40;99.90;;;;;;5012699;28;20052;-75
2023/09/06 12:15:19;;;;;;;3.15;1.70;;;30.30;99.90;;;;;;5005295;28;20033;-75
2023/09/06 12:17:49;;;;;;;2.03;1.70;;;30.30;99.90;;;;;;4987409;28;20041;-75
2023/09/06 12:20:19;;;;;;;1.77;1.67;;;30.40;99.90;;;;;;5000991;28;20508;-75
2023/09/06 12:22:49;;;;;;;5.10;1.88;;;30.50;99.90;;;;;;4978369;28;20046;-75
2023/09/06 12:25:15;;;;;;;2.85;1.80;;;30.50;99.90;;;;;;4997471;28;20041;-75
2023/09/06 12:27:45;;;;;;;3.78;1.83;;;30.70;99.90;;;;;;4998207;28;20046;-75
2023/09/06 12:30:11;;;;;;;4.22;1.70;;;30.40;99.90;;;;;;4993028;28;20371;-74
2023/09/06 12:32:39;;;;;;;1.77;1.55;;;30.50;99.90;;;;;;4976485;28;20045;-75
2023/09/06 12:35:07;;;;;;;2.75;1.42;;;30.70;99.90;;;;;;4992642;28;20117;-74
2023/09/06 12:37:34;;;;;;;3.45;1.60;;;30.80;99.90;;;;;;4992420;28;20042;-74
2023/09/06 12:40:00;;;;;;;3.50;2.08;;;30.90;99.90;;;;;;4992617;28;20074;-75
2023/09/06 12:42:26;;;;;;;6.00;2.15;;;30.80;99.90;;;;;;4976382;28;20141;-75
2023/09/06 12:44:51;;;;;;;4.57;1.55;;;30.80;99.90;;;;;;4992484;28;20038;-76
2023/09/06 12:47:17;;;;;;;3.47;1.70;;;30.70;99.90;;;;;;4992256;28;20042;-75
2023/09/06 12:49:42;;;;;;;1.65;1.30;;;30.90;99.90;;;;;;4992310;28;20141;-76
2023/09/06 12:52:10;;;;;;;2.22;1.30;;;31.10;99.90;;;;;;4999529;28;20056;-75
2023/09/06 12:54:36;;;;;;;3.35;1.48;;;;;;;;;;5012210;28;20050;-76
2023/09/06 12:57:02;;;;;;;3.63;1.88;;;31.10;99.90;;;;;;5010837;28;20129;-76